createdAt,value
2023-04-07T00:00:48.615Z,25.40
2023-04-07T00:03:15.159Z,25.50
2023-04-07T00:05:41.897Z,27.25
2023-04-07T00:08:08.605Z,25.95
2023-04-07T00:10:35.394Z,27.63
2023-04-07T00:13:03.352Z,23.38
2023-04-07T00:15:29.861Z,28.08
2023-04-07T00:17:56.337Z,25.40
2023-04-07T00:20:23.119Z,26.92
2023-04-07T00:22:49.558Z,28.83
2023-04-07T00:25:15.952Z,27.40
2023-04-07T00:27:42.454Z,29.50
2023-04-07T00:30:09.052Z,27.02
2023-04-07T00:32:36.675Z,29.02
2023-04-07T00:35:03.231Z,28.65
2023-04-07T00:37:29.690Z,28.70
2023-04-07T00:39:57.515Z,29.30
2023-04-07T00:42:23.929Z,27.85
2023-04-07T00:44:50.535Z,29.55
2023-04-07T00:47:17.023Z,29.20
2023-04-07T00:49:43.412Z,28.70
2023-04-07T00:52:11.601Z,31.95
2023-04-07T00:54:39.428Z,31.90
2023-04-07T00:57:06.783Z,30.05
2023-04-07T00:59:34.436Z,27.15
2023-04-07T01:02:31.776Z,28.42
2023-04-07T01:05:07.620Z,29.35
2023-04-07T01:07:47.789Z,30.33
2023-04-07T01:10:17.542Z,29.92
2023-04-07T01:12:54.335Z,28.48
2023-04-07T01:15:22.973Z,33.03
2023-04-07T01:17:54.105Z,28.10
2023-04-07T01:20:23.219Z,26.25
2023-04-07T01:22:57.462Z,27.65
2023-04-07T01:25:36.112Z,30.30
2023-04-07T01:28:03.588Z,25.05
2023-04-07T01:30:32.034Z,26.50
2023-04-07T01:33:00.006Z,28.88
2023-04-07T01:35:28.268Z,27.23
2023-04-07T01:37:56.132Z,27.17
2023-04-07T01:40:22.968Z,26.30
2023-04-07T01:42:51.429Z,25.40
2023-04-07T01:45:18.347Z,24.70
2023-04-07T01:47:45.212Z,24.15
2023-04-07T01:50:12.573Z,26.52
2023-04-07T01:52:40.146Z,29.17
2023-04-07T01:55:07.415Z,27.20
2023-04-07T01:57:34.048Z,24.40
2023-04-07T02:00:00.434Z,25.50
2023-04-07T02:02:27.239Z,22.08
2023-04-07T02:04:58.175Z,29.00
2023-04-07T02:07:56.075Z,23.85
2023-04-07T02:10:24.341Z,22.52
2023-04-07T02:12:52.161Z,22.30
2023-04-07T02:15:19.129Z,23.67
2023-04-07T02:17:49.137Z,23.52
2023-04-07T02:20:16.275Z,27.42
2023-04-07T02:22:44.627Z,22.80
2023-04-07T02:25:32.203Z,23.85
2023-04-07T02:28:00.333Z,24.80
2023-04-07T02:30:27.291Z,24.65
2023-04-07T02:32:54.161Z,24.85
2023-04-07T02:35:21.055Z,24.23
2023-04-07T02:37:47.404Z,23.65
2023-04-07T02:40:14.152Z,23.48
2023-04-07T02:42:40.687Z,26.05
2023-04-07T02:45:08.008Z,25.02
2023-04-07T02:47:35.227Z,22.95
2023-04-07T02:50:01.764Z,22.33
2023-04-07T02:52:28.274Z,23.52
2023-04-07T02:54:54.644Z,24.08
2023-04-07T02:57:21.425Z,23.33
2023-04-07T02:59:47.773Z,26.60
2023-04-07T03:02:14.229Z,22.35
2023-04-07T03:04:40.837Z,21.90
2023-04-07T03:07:07.265Z,22.77
2023-04-07T03:09:33.676Z,24.52
2023-04-07T03:12:00.264Z,23.50
2023-04-07T03:14:27.155Z,21.85
2023-04-07T03:16:53.543Z,23.40
2023-04-07T03:19:19.984Z,22.33
2023-04-07T03:21:46.431Z,23.73
2023-04-07T03:24:12.823Z,23.73
2023-04-07T03:26:39.222Z,26.65
2023-04-07T03:29:05.912Z,23.70
2023-04-07T03:31:32.290Z,25.25
2023-04-07T03:33:58.664Z,25.10
2023-04-07T03:36:25.031Z,22.13
2023-04-07T03:38:51.400Z,23.98
2023-04-07T03:41:17.779Z,22.27
2023-04-07T03:43:44.243Z,26.42
2023-04-07T03:46:10.854Z,21.77
2023-04-07T03:48:37.557Z,23.08
2023-04-07T03:51:03.959Z,25.63
2023-04-07T03:53:30.661Z,24.88
2023-04-07T03:55:57.100Z,22.85
2023-04-07T03:58:23.475Z,25.70
2023-04-07T04:00:49.914Z,26.00
2023-04-07T04:03:16.482Z,20.95
2023-04-07T04:05:42.907Z,23.55
2023-04-07T04:08:09.272Z,26.10
2023-04-07T04:10:35.664Z,23.33
2023-04-07T04:13:03.904Z,23.23
2023-04-07T04:15:30.534Z,22.75
2023-04-07T04:17:56.938Z,21.27
2023-04-07T04:20:23.451Z,25.20
2023-04-07T04:22:49.800Z,24.38
2023-04-07T04:25:20.656Z,26.17
2023-04-07T04:27:47.071Z,26.48
2023-04-07T04:30:13.497Z,26.48
2023-04-07T04:32:40.096Z,26.73
2023-04-07T04:35:06.810Z,27.27
2023-04-07T04:37:33.201Z,25.17
2023-04-07T04:39:59.591Z,25.83
2023-04-07T04:42:27.803Z,25.98
2023-04-07T04:44:54.174Z,25.52
2023-04-07T04:47:20.633Z,25.00
2023-04-07T04:49:47.049Z,21.55
2023-04-07T04:52:13.432Z,24.85
2023-04-07T04:54:39.822Z,23.50
2023-04-07T04:57:06.240Z,25.08
2023-04-07T04:59:34.054Z,23.02
2023-04-07T05:02:00.575Z,19.98
2023-04-07T05:04:28.358Z,22.15
2023-04-07T05:06:54.961Z,20.48
2023-04-07T05:09:21.314Z,21.55
2023-04-07T05:11:47.976Z,19.90
2023-04-07T05:14:14.370Z,21.85
2023-04-07T05:16:40.876Z,20.13
2023-04-07T05:19:07.390Z,19.85
2023-04-07T05:21:33.813Z,22.90
2023-04-07T05:24:00.165Z,24.35
2023-04-07T05:26:27.003Z,22.67
2023-04-07T05:28:53.389Z,20.88
2023-04-07T05:31:19.803Z,21.17
2023-04-07T05:33:46.319Z,22.10
2023-04-07T05:36:12.682Z,23.48
2023-04-07T05:38:39.137Z,21.35
2023-04-07T05:41:05.512Z,20.40
2023-04-07T05:43:31.903Z,20.33
2023-04-07T05:45:58.262Z,23.00
2023-04-07T05:48:24.671Z,22.60
2023-04-07T05:50:51.215Z,23.63
2023-04-07T05:53:17.626Z,22.98
2023-04-07T05:55:44.125Z,24.85
2023-04-07T05:58:11.051Z,24.20
2023-04-07T06:00:37.470Z,24.35
2023-04-07T06:03:04.306Z,21.95
2023-04-07T06:05:30.816Z,23.15
2023-04-07T06:07:57.177Z,22.52
2023-04-07T06:10:23.557Z,22.83
2023-04-07T06:12:50.004Z,23.35
2023-04-07T06:15:16.444Z,21.08
2023-04-07T06:17:45.459Z,21.60
2023-04-07T06:20:12.260Z,21.73
2023-04-07T06:22:39.207Z,20.23
2023-04-07T06:25:06.869Z,19.55
2023-04-07T06:27:33.279Z,22.20
2023-04-07T06:29:59.713Z,21.60
2023-04-07T06:32:26.405Z,20.85
2023-04-07T06:34:52.788Z,19.23
2023-04-07T06:37:19.259Z,20.13
2023-04-07T06:39:45.692Z,20.48
2023-04-07T06:42:12.084Z,21.65
2023-04-07T06:44:38.447Z,21.25
2023-04-07T06:47:04.875Z,21.85
2023-04-07T06:49:31.247Z,21.60
2023-04-07T06:51:57.686Z,21.55
2023-04-07T06:54:24.107Z,18.08
2023-04-07T06:56:52.270Z,19.90
2023-04-07T06:59:20.134Z,19.42
2023-04-07T07:01:46.817Z,14.27
2023-04-07T07:04:13.421Z,27.77
2023-04-07T07:06:39.873Z,30.52
2023-04-07T07:09:06.423Z,22.27
2023-04-07T07:11:32.879Z,21.38
2023-04-07T07:13:59.223Z,19.20
2023-04-07T07:16:26.038Z,19.50
2023-04-07T07:18:52.615Z,18.30
2023-04-07T07:21:19.186Z,16.27
2023-04-07T07:23:45.933Z,17.15
2023-04-07T07:26:12.578Z,16.52
2023-04-07T07:28:38.919Z,17.40
2023-04-07T07:31:15.808Z,18.58
2023-04-07T07:33:45.239Z,26.10
2023-04-07T07:36:12.356Z,18.65
2023-04-07T07:38:40.393Z,18.67
2023-04-07T07:41:07.476Z,19.45
2023-04-07T07:43:33.882Z,16.50
2023-04-07T07:46:00.386Z,17.17
2023-04-07T07:48:26.764Z,16.92
2023-04-07T07:50:53.309Z,17.17
2023-04-07T07:53:19.647Z,17.10
2023-04-07T07:55:46.924Z,16.88
2023-04-07T07:58:13.284Z,17.63
2023-04-07T08:00:39.630Z,17.83
2023-04-07T08:03:06.116Z,17.23
2023-04-07T08:05:32.655Z,18.98
2023-04-07T08:07:59.213Z,17.17
2023-04-07T08:10:25.888Z,18.55
2023-04-07T08:12:52.210Z,16.60
2023-04-07T08:15:18.581Z,16.83
2023-04-07T08:17:47.085Z,17.52
2023-04-07T08:20:13.464Z,17.70
2023-04-07T08:22:39.779Z,18.55
2023-04-07T08:25:07.699Z,19.27
2023-04-07T08:27:34.656Z,20.42
2023-04-07T08:30:03.393Z,20.20
2023-04-07T08:32:40.700Z,23.27
2023-04-07T08:35:07.388Z,21.25
2023-04-07T08:37:34.436Z,20.85
2023-04-07T08:40:01.910Z,20.75
2023-04-07T08:42:30.760Z,21.88
2023-04-07T08:45:00.194Z,22.27
2023-04-07T08:47:30.344Z,24.13
2023-04-07T08:49:58.128Z,24.50
2023-04-07T08:52:28.465Z,22.33
2023-04-07T08:54:56.056Z,24.45
2023-04-07T08:57:22.565Z,23.27
2023-04-07T08:59:51.367Z,23.58
2023-04-07T09:02:18.171Z,24.88
2023-04-07T09:04:44.748Z,26.55
2023-04-07T09:07:11.159Z,25.15
2023-04-07T09:09:37.616Z,26.50
2023-04-07T09:12:04.156Z,28.88
2023-04-07T09:14:30.526Z,25.98
2023-04-07T09:16:57.087Z,25.90
2023-04-07T09:19:26.192Z,26.00
2023-04-07T09:21:53.250Z,26.88
2023-04-07T09:24:24.066Z,30.23
2023-04-07T09:26:50.469Z,29.58
2023-04-07T09:29:20.619Z,26.80
2023-04-07T09:31:51.634Z,25.92
2023-04-07T09:34:26.573Z,25.15
2023-04-07T09:36:52.917Z,27.55
2023-04-07T09:39:19.763Z,26.25
2023-04-07T09:41:46.231Z,24.70
2023-04-07T09:44:12.700Z,22.95
2023-04-07T09:46:59.104Z,22.90
2023-04-07T09:49:26.059Z,22.30
2023-04-07T09:52:00.133Z,21.65
2023-04-07T09:54:42.072Z,20.63
2023-04-07T09:57:10.451Z,18.83
2023-04-07T09:59:38.688Z,18.88
2023-04-07T10:02:06.333Z,19.35
2023-04-07T10:04:32.866Z,20.92
2023-04-07T10:07:00.105Z,18.88
2023-04-07T10:09:28.081Z,18.58
2023-04-07T10:11:56.735Z,18.33
2023-04-07T10:14:31.575Z,19.98
2023-04-07T10:17:00.346Z,18.48
2023-04-07T10:19:30.716Z,17.15
2023-04-07T10:21:57.614Z,18.67
2023-04-07T10:24:37.764Z,18.50
2023-04-07T10:27:07.772Z,18.27
2023-04-07T10:29:46.025Z,18.63
2023-04-07T10:32:12.989Z,17.23
2023-04-07T10:34:51.190Z,16.00
2023-04-07T10:37:20.989Z,17.00
2023-04-07T10:39:48.334Z,17.48
2023-04-07T10:42:39.651Z,21.08
2023-04-07T10:45:06.888Z,17.98
2023-04-07T10:47:33.333Z,16.98
2023-04-07T10:50:18.830Z,17.85
2023-04-07T10:52:46.545Z,17.95
2023-04-07T10:55:30.075Z,16.05
2023-04-07T10:58:15.276Z,15.27
2023-04-07T11:00:42.157Z,15.93
2023-04-07T11:03:14.833Z,15.90
2023-04-07T11:05:41.859Z,15.70
2023-04-07T11:08:08.515Z,15.80
2023-04-07T11:10:35.749Z,16.50
2023-04-07T11:13:08.940Z,15.60
2023-04-07T11:15:38.496Z,16.45
2023-04-07T11:18:11.427Z,16.83
2023-04-07T11:20:45.876Z,17.17
2023-04-07T11:23:13.421Z,14.93
2023-04-07T11:25:42.467Z,16.83
2023-04-07T11:28:10.114Z,16.98
2023-04-07T11:30:40.667Z,14.90
2023-04-07T11:33:07.738Z,15.75
2023-04-07T11:35:35.333Z,15.85
2023-04-07T11:38:03.639Z,15.07
2023-04-07T11:40:35.057Z,15.05
2023-04-07T11:43:04.486Z,15.07
2023-04-07T11:45:35.292Z,13.75
2023-04-07T11:48:01.806Z,12.85
2023-04-07T11:50:41.486Z,14.38
2023-04-07T11:53:07.865Z,14.10
2023-04-07T11:55:34.260Z,13.50
2023-04-07T11:58:10.845Z,10.98
2023-04-07T12:00:37.409Z,10.15
2023-04-07T12:03:14.752Z,11.00
2023-04-07T12:05:45.188Z,11.43
2023-04-07T12:08:16.502Z,10.95
2023-04-07T12:10:44.584Z,10.52
2023-04-07T12:13:14.169Z,17.40
2023-04-07T12:15:40.638Z,11.18
2023-04-07T12:18:06.997Z,12.43
2023-04-07T12:20:33.337Z,10.73
2023-04-07T12:23:00.454Z,10.00
2023-04-07T12:25:27.521Z,10.57
2023-04-07T12:27:53.946Z,9.57
2023-04-07T12:30:24.585Z,8.40
2023-04-07T12:32:51.018Z,8.77
2023-04-07T12:35:17.458Z,8.75
2023-04-07T12:37:49.532Z,7.72
2023-04-07T12:40:17.788Z,7.90
2023-04-07T12:42:48.025Z,7.82
2023-04-07T12:45:14.417Z,8.88
2023-04-07T12:47:41.137Z,7.90
2023-04-07T12:50:08.034Z,7.70
2023-04-07T12:52:34.477Z,7.22
2023-04-07T12:55:01.021Z,6.88
2023-04-07T12:57:27.507Z,6.20
2023-04-07T12:59:56.642Z,5.20
2023-04-07T13:02:23.197Z,6.03
2023-04-07T13:04:49.858Z,6.70
2023-04-07T13:07:16.363Z,5.80
2023-04-07T13:09:43.798Z,5.70
2023-04-07T13:12:14.249Z,4.53
2023-04-07T13:14:52.790Z,6.53
2023-04-07T13:17:23.793Z,4.60
2023-04-07T13:19:50.731Z,4.80
2023-04-07T13:22:21.211Z,4.90
2023-04-07T13:24:50.868Z,4.50
2023-04-07T13:27:17.222Z,4.30
2023-04-07T13:29:43.584Z,3.53
2023-04-07T13:32:13.125Z,3.58
2023-04-07T13:34:40.214Z,3.78
2023-04-07T13:37:06.634Z,3.78
2023-04-07T13:39:36.384Z,2.85
2023-04-07T13:42:02.915Z,3.10
2023-04-07T13:44:30.340Z,3.55
2023-04-07T13:47:01.747Z,3.65
2023-04-07T13:49:28.172Z,2.55
2023-04-07T13:51:54.546Z,2.67
2023-04-07T13:54:20.872Z,2.28
2023-04-07T13:56:50.927Z,2.20
2023-04-07T13:59:17.286Z,1.90
2023-04-07T14:01:43.786Z,1.95
2023-04-07T14:04:10.611Z,2.03
2023-04-07T14:06:37.840Z,2.05
2023-04-07T14:09:06.250Z,2.03
2023-04-07T14:11:34.426Z,2.33
2023-04-07T14:14:02.643Z,2.15
2023-04-07T14:16:29.117Z,2.15
2023-04-07T14:18:56.157Z,1.70
2023-04-07T14:21:22.792Z,2.00
2023-04-07T14:23:49.176Z,2.10
2023-04-07T14:26:15.641Z,1.85
2023-04-07T14:28:42.002Z,2.05
2023-04-07T14:31:12.930Z,2.92
2023-04-07T14:33:39.388Z,3.72
2023-04-07T14:36:06.213Z,2.25
2023-04-07T14:38:34.817Z,2.80
2023-04-07T14:43:32.516Z,3.35
2023-04-07T14:46:00.062Z,3.15
2023-04-07T14:48:26.674Z,3.95
2023-04-07T14:51:06.153Z,3.00
2023-04-07T14:53:35.513Z,2.72
2023-04-07T14:56:04.934Z,2.92
2023-04-07T14:58:31.843Z,3.22
2023-04-07T15:00:58.208Z,2.75
2023-04-07T15:03:24.808Z,2.53
2023-04-07T15:05:54.572Z,2.53
2023-04-07T15:08:21.164Z,2.55
2023-04-07T15:10:47.518Z,3.47
2023-04-07T15:13:13.921Z,2.78
2023-04-07T15:15:40.368Z,2.30
2023-04-07T15:18:06.700Z,3.10
2023-04-07T15:20:33.045Z,1.85
2023-04-07T15:23:01.958Z,1.80
2023-04-07T15:25:28.967Z,1.95
2023-04-07T15:27:55.346Z,2.03
2023-04-07T15:30:21.814Z,2.63
2023-04-07T15:33:06.044Z,1.40
2023-04-07T15:35:32.574Z,2.22
2023-04-07T15:37:58.981Z,1.23
2023-04-07T15:40:25.341Z,2.03
2023-04-07T15:42:51.680Z,1.40
2023-04-07T15:45:18.004Z,1.70
2023-04-07T15:47:44.419Z,1.60
2023-04-07T15:50:11.008Z,1.77
2023-04-07T15:52:37.477Z,1.77
2023-04-07T15:55:04.080Z,1.90
2023-04-07T15:57:30.408Z,2.05
2023-04-07T15:59:56.813Z,1.98
2023-04-07T16:02:23.248Z,1.88
2023-04-07T16:04:49.715Z,1.85
2023-04-07T16:07:16.128Z,2.20
2023-04-07T16:09:42.464Z,1.80
2023-04-07T16:12:08.849Z,2.22
2023-04-07T16:14:35.303Z,2.00
2023-04-07T16:17:02.342Z,1.80
2023-04-07T16:19:28.950Z,1.70
2023-04-07T16:21:55.313Z,1.80
2023-04-07T16:24:21.782Z,1.85
2023-04-07T16:26:50.361Z,1.88
2023-04-07T16:29:19.608Z,2.75
2023-04-07T16:31:45.968Z,4.50
2023-04-07T16:34:12.656Z,1.88
2023-04-07T16:36:39.118Z,1.60
2023-04-07T16:39:05.796Z,1.85
2023-04-07T16:41:32.154Z,1.30
2023-04-07T16:43:58.514Z,1.40
2023-04-07T16:46:28.411Z,3.50
2023-04-07T16:48:54.973Z,1.48
2023-04-07T16:51:21.731Z,1.77
2023-04-07T16:53:48.336Z,1.70
2023-04-07T16:56:18.979Z,1.50
2023-04-07T16:58:45.478Z,1.30
2023-04-07T17:01:11.876Z,1.15
2023-04-07T17:03:38.589Z,1.25
2023-04-07T17:06:05.518Z,2.17
2023-04-07T17:08:35.797Z,1.38
2023-04-07T17:11:10.641Z,3.05
2023-04-07T17:13:37.567Z,1.17
2023-04-07T17:16:04.410Z,1.30
2023-04-07T17:18:32.176Z,2.65
2023-04-07T17:20:58.579Z,2.25
2023-04-07T17:23:25.418Z,0.75
2023-04-07T17:25:51.850Z,0.75
2023-04-07T17:28:18.191Z,0.60
2023-04-07T17:30:44.646Z,0.65
2023-04-07T17:33:12.221Z,0.70
2023-04-07T17:35:38.806Z,0.98
2023-04-07T17:38:05.741Z,1.23
2023-04-07T17:40:32.434Z,1.52
2023-04-07T17:42:59.061Z,1.00
2023-04-07T17:45:25.864Z,0.90
2023-04-07T17:47:52.324Z,0.98
2023-04-07T17:50:18.799Z,0.80
2023-04-07T17:52:45.257Z,2.20
2023-04-07T17:55:12.431Z,1.30
2023-04-07T17:57:38.912Z,0.60
2023-04-07T18:00:06.422Z,0.73
2023-04-07T18:02:33.191Z,1.23
2023-04-07T18:05:01.436Z,0.95
2023-04-07T18:07:29.252Z,7.63
2023-04-07T18:09:56.802Z,3.00
2023-04-07T18:12:23.644Z,1.60
2023-04-07T18:14:50.295Z,1.10
2023-04-07T18:17:16.715Z,1.00
2023-04-07T18:19:43.116Z,2.33
2023-04-07T18:22:12.372Z,1.00
2023-04-07T18:24:38.891Z,1.90
2023-04-07T18:27:05.480Z,1.08
2023-04-07T18:29:31.835Z,1.30
2023-04-07T18:31:58.179Z,1.92
2023-04-07T18:34:25.995Z,1.70
2023-04-07T18:36:52.469Z,2.13
2023-04-07T18:39:19.127Z,1.00
2023-04-07T18:41:47.327Z,1.33
2023-04-07T18:44:14.382Z,2.33
2023-04-07T18:46:41.255Z,0.80
2023-04-07T18:49:07.880Z,11.95
2023-04-07T18:51:34.424Z,9.32
2023-04-07T18:54:01.102Z,10.45
2023-04-07T18:56:28.213Z,5.63
2023-04-07T18:58:54.682Z,3.13
2023-04-07T19:01:21.592Z,4.13
2023-04-07T19:03:48.545Z,3.05
2023-04-07T19:06:16.402Z,2.30
2023-04-07T19:08:43.103Z,2.45
2023-04-07T19:11:10.058Z,3.08
2023-04-07T19:13:36.471Z,1.63
2023-04-07T19:16:03.221Z,1.88
2023-04-07T19:18:31.551Z,4.43
2023-04-07T19:20:57.989Z,1.02
2023-04-07T19:23:24.359Z,1.00
2023-04-07T19:25:50.940Z,1.20
2023-04-07T19:28:17.390Z,1.20
2023-04-07T19:30:43.789Z,1.63
2023-04-07T19:33:10.778Z,1.17
2023-04-07T19:35:38.811Z,1.30
2023-04-07T19:38:06.010Z,1.30
2023-04-07T19:40:34.688Z,1.30
2023-04-07T19:43:01.246Z,1.98
2023-04-07T19:45:27.862Z,1.92
2023-04-07T19:47:54.559Z,2.17
2023-04-07T19:50:21.286Z,1.70
2023-04-07T19:52:47.725Z,1.50
2023-04-07T19:55:14.160Z,1.77
2023-04-07T19:57:41.092Z,1.70
2023-04-07T20:00:08.854Z,1.60
2023-04-07T20:02:36.088Z,1.48
2023-04-07T20:05:03.371Z,1.40
2023-04-07T20:07:31.143Z,1.73
2023-04-07T20:09:57.962Z,2.03
2023-04-07T20:12:24.401Z,1.60
2023-04-07T20:14:51.040Z,1.25
2023-04-07T20:17:17.407Z,1.40
2023-04-07T20:19:43.784Z,1.25
2023-04-07T20:22:10.395Z,1.30
2023-04-07T20:24:37.002Z,2.08
2023-04-07T20:27:03.493Z,1.60
2023-04-07T20:29:29.884Z,1.50
2023-04-07T20:31:56.285Z,1.60
2023-04-07T20:34:22.660Z,1.38
2023-04-07T20:36:49.237Z,3.13
2023-04-07T20:39:16.439Z,1.55
2023-04-07T20:41:44.992Z,1.67
2023-04-07T20:44:12.084Z,2.10
2023-04-07T20:46:38.482Z,1.70
2023-04-07T20:49:07.440Z,2.13
2023-04-07T20:51:36.514Z,2.75
2023-04-07T20:54:03.376Z,1.40
2023-04-07T20:56:30.083Z,1.60
2023-04-07T20:58:56.469Z,3.53
2023-04-07T21:01:24.863Z,1.73
2023-04-07T21:03:52.660Z,2.08
2023-04-07T21:06:19.123Z,1.83
2023-04-07T21:08:45.875Z,1.80
2023-04-07T21:11:12.291Z,2.20
2023-04-07T21:13:38.637Z,2.30
2023-04-07T21:16:05.684Z,2.00
2023-04-07T21:18:33.410Z,3.28
2023-04-07T21:21:02.075Z,2.72
2023-04-07T21:23:28.562Z,2.30
2023-04-07T21:25:59.827Z,2.50
2023-04-07T21:28:26.381Z,2.85
2023-04-07T21:30:56.055Z,2.28
2023-04-07T21:33:25.953Z,2.30
2023-04-07T21:35:53.052Z,2.05
2023-04-07T21:38:19.809Z,2.65
2023-04-07T21:40:50.633Z,2.65
2023-04-07T21:43:17.097Z,2.60
2023-04-07T21:45:47.031Z,3.22
2023-04-07T21:48:14.548Z,2.33
2023-04-07T21:50:41.009Z,2.47
2023-04-07T21:53:09.525Z,2.60
2023-04-07T21:55:36.222Z,3.70
2023-04-07T21:58:03.809Z,2.72
2023-04-07T22:00:30.720Z,3.35
2023-04-07T22:02:57.255Z,2.28
2023-04-07T22:05:23.828Z,2.53
2023-04-07T22:07:50.480Z,2.13
2023-04-07T22:10:16.952Z,2.55
2023-04-07T22:12:43.518Z,2.92
2023-04-07T22:15:11.300Z,6.28
2023-04-07T22:17:39.793Z,2.28
2023-04-07T22:20:07.558Z,2.30
2023-04-07T22:22:33.967Z,2.65
2023-04-07T22:25:00.434Z,4.32
2023-04-07T22:27:27.722Z,2.20
2023-04-07T22:29:54.349Z,1.92
2023-04-07T22:32:20.808Z,1.98
2023-04-07T22:34:47.203Z,2.47
2023-04-07T22:37:13.766Z,3.13
2023-04-07T22:39:40.202Z,2.67
2023-04-07T22:42:06.645Z,2.53
2023-04-07T22:44:33.090Z,2.20
2023-04-07T22:46:59.660Z,2.03
2023-04-07T22:49:26.323Z,1.60
2023-04-07T22:51:55.084Z,2.10
2023-04-07T22:54:21.566Z,1.85
2023-04-07T22:56:48.082Z,2.00
2023-04-07T22:59:14.460Z,1.75
2023-04-07T23:01:41.229Z,1.70
2023-04-07T23:04:07.835Z,1.90
2023-04-07T23:06:34.317Z,1.95
2023-04-07T23:09:01.031Z,1.73
2023-04-07T23:11:27.406Z,2.03
2023-04-07T23:13:53.819Z,2.17
2023-04-07T23:16:20.632Z,2.13
2023-04-07T23:18:47.318Z,1.88
2023-04-07T23:21:13.877Z,1.90
2023-04-07T23:23:40.273Z,5.63
2023-04-07T23:26:06.932Z,2.40
2023-04-07T23:28:33.519Z,2.28
2023-04-07T23:31:00.178Z,2.22
2023-04-07T23:33:26.621Z,3.90
2023-04-07T23:35:53.063Z,2.05
2023-04-07T23:38:19.517Z,3.40
2023-04-07T23:40:45.946Z,3.10
2023-04-07T23:43:12.410Z,1.65
2023-04-07T23:45:39.208Z,2.03
2023-04-07T23:48:05.999Z,1.73
2023-04-07T23:50:41.186Z,1.80
2023-04-07T23:53:08.313Z,2.28
2023-04-07T23:55:34.788Z,2.00
2023-04-07T23:58:01.379Z,1.73
